sensor_id;sensor_type;location;lat;lon;timestamp;pressure;altitude;pressure_sealevel;temperature;humidity
27958;BME280;15295;42.658;23.374;2022-07-23T00:02:14;94883.56;;;27.23;32.41
27958;BME280;15295;42.658;23.374;2022-07-23T00:04:40;94896.44;;;27.35;32.94
27958;BME280;15295;42.658;23.374;2022-07-23T00:07:05;94892.13;;;27.39;32.70
27958;BME280;15295;42.658;23.374;2022-07-23T00:09:33;94897.78;;;27.45;33.39
27958;BME280;15295;42.658;23.374;2022-07-23T00:11:58;94892.56;;;27.32;33.34
27958;BME280;15295;42.658;23.374;2022-07-23T00:14:24;94885.50;;;27.11;33.71
27958;BME280;15295;42.658;23.374;2022-07-23T00:16:49;94898.75;;;27.11;34.07
27958;BME280;15295;42.658;23.374;2022-07-23T00:19:18;94908.66;;;27.06;34.57
27958;BME280;15295;42.658;23.374;2022-07-23T00:21:43;94908.13;;;27.02;34.53
27958;BME280;15295;42.658;23.374;2022-07-23T00:24:09;94906.50;;;26.90;34.98
27958;BME280;15295;42.658;23.374;2022-07-23T00:26:34;94904.34;;;26.59;35.75
27958;BME280;15295;42.658;23.374;2022-07-23T00:29:09;94913.03;;;26.61;36.02
27958;BME280;15295;42.658;23.374;2022-07-23T00:31:34;94908.22;;;26.42;36.41
27958;BME280;15295;42.658;23.374;2022-07-23T00:34:00;94920.28;;;26.48;36.84
27958;BME280;15295;42.658;23.374;2022-07-23T00:36:27;94929.69;;;26.25;37.17
27958;BME280;15295;42.658;23.374;2022-07-23T00:38:54;94924.28;;;26.21;37.79
27958;BME280;15295;42.658;23.374;2022-07-23T00:41:20;94926.09;;;26.24;38.05
27958;BME280;15295;42.658;23.374;2022-07-23T00:43:46;94915.75;;;26.30;38.03
27958;BME280;15295;42.658;23.374;2022-07-23T00:46:11;94909.66;;;26.32;38.32
27958;BME280;15295;42.658;23.374;2022-07-23T00:48:37;94917.31;;;26.37;38.57
27958;BME280;15295;42.658;23.374;2022-07-23T00:51:19;94902.50;;;26.31;38.50
27958;BME280;15295;42.658;23.374;2022-07-23T00:53:45;94902.06;;;26.38;38.65
27958;BME280;15295;42.658;23.374;2022-07-23T00:56:11;94915.13;;;26.41;38.77
27958;BME280;15295;42.658;23.374;2022-07-23T00:58:38;94913.56;;;26.40;38.80
27958;BME280;15295;42.658;23.374;2022-07-23T01:01:11;94890.41;;;26.19;38.74
27958;BME280;15295;42.658;23.374;2022-07-23T01:03:36;94868.44;;;25.97;38.95
27958;BME280;15295;42.658;23.374;2022-07-23T01:06:02;94907.69;;;26.18;38.78
27958;BME280;15295;42.658;23.374;2022-07-23T01:08:27;94911.19;;;26.13;38.79
27958;BME280;15295;42.658;23.374;2022-07-23T01:10:54;94904.59;;;26.16;38.50
27958;BME280;15295;42.658;23.374;2022-07-23T01:13:19;94908.41;;;26.13;38.44
27958;BME280;15295;42.658;23.374;2022-07-23T01:15:45;94892.09;;;25.96;38.73
27958;BME280;15295;42.658;23.374;2022-07-23T01:18:10;94901.84;;;26.01;38.90
27958;BME280;15295;42.658;23.374;2022-07-23T01:20:52;94902.06;;;26.18;38.56
27958;BME280;15295;42.658;23.374;2022-07-23T01:23:17;94899.72;;;26.11;38.33
27958;BME280;15295;42.658;23.374;2022-07-23T01:25:52;94898.84;;;26.05;38.48
27958;BME280;15295;42.658;23.374;2022-07-23T01:28:17;94895.06;;;26.08;38.24
27958;BME280;15295;42.658;23.374;2022-07-23T01:30:43;94894.22;;;26.01;37.97
27958;BME280;15295;42.658;23.374;2022-07-23T01:33:09;94895.19;;;25.78;38.42
27958;BME280;15295;42.658;23.374;2022-07-23T01:35:36;94900.34;;;25.85;38.15
27958;BME280;15295;42.658;23.374;2022-07-23T01:38:01;94888.03;;;25.77;38.31
27958;BME280;15295;42.658;23.374;2022-07-23T01:43:02;94887.19;;;25.71;38.04
27958;BME280;15295;42.658;23.374;2022-07-23T01:45:28;94870.28;;;25.46;38.39
27958;BME280;15295;42.658;23.374;2022-07-23T01:47:55;94896.13;;;25.55;38.46
27958;BME280;15295;42.658;23.374;2022-07-23T01:50:25;94898.22;;;25.60;38.27
27958;BME280;15295;42.658;23.374;2022-07-23T01:55:41;94889.91;;;25.66;37.98
27958;BME280;15295;42.658;23.374;2022-07-23T02:06:07;94895.69;;;25.77;37.42
27958;BME280;15295;42.658;23.374;2022-07-23T02:08:33;94892.78;;;25.71;37.71
27958;BME280;15295;42.658;23.374;2022-07-23T02:14:07;94888.97;;;25.54;38.07
27958;BME280;15295;42.658;23.374;2022-07-23T02:19:08;94882.28;;;25.17;38.39
27958;BME280;15295;42.658;23.374;2022-07-23T02:35:39;94897.78;;;25.33;37.65
27958;BME280;15295;42.658;23.374;2022-07-23T02:41:27;94896.31;;;25.37;37.74
27958;BME280;15295;42.658;23.374;2022-07-23T02:43:52;94909.75;;;25.33;37.82
27958;BME280;15295;42.658;23.374;2022-07-23T02:46:17;94898.84;;;25.35;37.75
27958;BME280;15295;42.658;23.374;2022-07-23T02:48:43;94913.69;;;25.41;37.92
27958;BME280;15295;42.658;23.374;2022-07-23T02:51:09;94911.97;;;25.44;37.69
27958;BME280;15295;42.658;23.374;2022-07-23T02:53:35;94912.53;;;25.33;38.04
27958;BME280;15295;42.658;23.374;2022-07-23T02:56:00;94918.06;;;25.27;38.46
27958;BME280;15295;42.658;23.374;2022-07-23T02:58:26;94915.94;;;25.22;38.60
27958;BME280;15295;42.658;23.374;2022-07-23T03:01:22;94923.34;;;25.11;39.42
27958;BME280;15295;42.658;23.374;2022-07-23T03:03:48;94901.97;;;24.79;39.87
27958;BME280;15295;42.658;23.374;2022-07-23T03:06:13;94924.97;;;24.74;40.42
27958;BME280;15295;42.658;23.374;2022-07-23T03:08:40;94915.72;;;24.68;40.65
27958;BME280;15295;42.658;23.374;2022-07-23T03:11:19;94930.53;;;24.83;40.57
27958;BME280;15295;42.658;23.374;2022-07-23T03:13:45;94922.94;;;24.60;41.04
27958;BME280;15295;42.658;23.374;2022-07-23T03:16:10;94932.72;;;24.40;41.70
27958;BME280;15295;42.658;23.374;2022-07-23T03:21:17;94898.66;;;24.13;41.89
27958;BME280;15295;42.658;23.374;2022-07-23T03:23:43;94921.00;;;24.13;42.00
27958;BME280;15295;42.658;23.374;2022-07-23T03:26:08;94918.31;;;24.18;42.08
27958;BME280;15295;42.658;23.374;2022-07-23T03:28:34;94938.69;;;24.33;41.95
27958;BME280;15295;42.658;23.374;2022-07-23T03:31:00;94944.31;;;24.48;42.18
27958;BME280;15295;42.658;23.374;2022-07-23T03:33:26;94942.09;;;24.52;41.65
27958;BME280;15295;42.658;23.374;2022-07-23T03:35:51;94922.06;;;24.53;41.57
27958;BME280;15295;42.658;23.374;2022-07-23T03:38:16;94925.84;;;24.65;41.42
27958;BME280;15295;42.658;23.374;2022-07-23T03:43:17;94921.91;;;24.72;41.05
27958;BME280;15295;42.658;23.374;2022-07-23T03:45:42;94948.44;;;24.91;41.13
27958;BME280;15295;42.658;23.374;2022-07-23T03:48:08;94948.03;;;24.83;40.96
27958;BME280;15295;42.658;23.374;2022-07-23T03:50:33;94941.81;;;24.65;41.56
27958;BME280;15295;42.658;23.374;2022-07-23T03:52:59;94953.25;;;24.76;41.69
27958;BME280;15295;42.658;23.374;2022-07-23T03:55:25;94954.31;;;24.78;41.46
27958;BME280;15295;42.658;23.374;2022-07-23T03:57:50;94953.06;;;24.79;41.49
27958;BME280;15295;42.658;23.374;2022-07-23T04:00:16;94941.59;;;24.77;41.14
27958;BME280;15295;42.658;23.374;2022-07-23T04:02:42;94944.19;;;24.81;41.26
27958;BME280;15295;42.658;23.374;2022-07-23T04:05:07;94955.34;;;24.81;41.36
27958;BME280;15295;42.658;23.374;2022-07-23T04:07:33;94940.16;;;24.82;41.19
27958;BME280;15295;42.658;23.374;2022-07-23T04:10:17;94954.03;;;24.91;41.35
27958;BME280;15295;42.658;23.374;2022-07-23T04:12:47;94954.63;;;24.57;41.99
27958;BME280;15295;42.658;23.374;2022-07-23T04:15:12;94955.31;;;24.66;41.76
27958;BME280;15295;42.658;23.374;2022-07-23T04:17:38;94957.13;;;24.78;41.33
27958;BME280;15295;42.658;23.374;2022-07-23T04:20:03;94961.31;;;24.74;41.43
27958;BME280;15295;42.658;23.374;2022-07-23T04:22:37;94944.19;;;24.81;41.13
27958;BME280;15295;42.658;23.374;2022-07-23T04:25:03;94948.81;;;24.98;40.99
27958;BME280;15295;42.658;23.374;2022-07-23T04:30:04;94960.50;;;25.26;40.71
27958;BME280;15295;42.658;23.374;2022-07-23T04:32:36;94958.31;;;25.45;40.13
27958;BME280;15295;42.658;23.374;2022-07-23T04:35:01;94965.97;;;25.64;39.71
27958;BME280;15295;42.658;23.374;2022-07-23T04:37:27;94929.78;;;25.61;39.28
27958;BME280;15295;42.658;23.374;2022-07-23T04:39:53;94967.53;;;26.00;38.57
27958;BME280;15295;42.658;23.374;2022-07-23T04:42:33;94958.53;;;26.11;37.99
27958;BME280;15295;42.658;23.374;2022-07-23T04:44:59;94964.06;;;26.25;38.10
27958;BME280;15295;42.658;23.374;2022-07-23T04:47:24;94970.50;;;26.31;38.21
27958;BME280;15295;42.658;23.374;2022-07-23T04:49:50;94962.47;;;26.39;38.18
27958;BME280;15295;42.658;23.374;2022-07-23T04:52:36;94965.06;;;26.42;37.75
27958;BME280;15295;42.658;23.374;2022-07-23T04:55:02;94978.66;;;26.49;37.73
27958;BME280;15295;42.658;23.374;2022-07-23T04:57:27;94977.38;;;26.70;37.17
27958;BME280;15295;42.658;23.374;2022-07-23T04:59:53;94985.94;;;26.82;37.23
27958;BME280;15295;42.658;23.374;2022-07-23T05:02:21;94984.00;;;26.93;36.89
27958;BME280;15295;42.658;23.374;2022-07-23T05:09:56;94957.72;;;27.42;36.28
27958;BME280;15295;42.658;23.374;2022-07-23T05:12:21;94966.56;;;27.61;35.97
27958;BME280;15295;42.658;23.374;2022-07-23T05:14:47;94980.50;;;27.81;36.26
27958;BME280;15295;42.658;23.374;2022-07-23T05:17:12;94979.31;;;27.93;35.79
27958;BME280;15295;42.658;23.374;2022-07-23T05:19:37;94973.69;;;27.93;35.43
27958;BME280;15295;42.658;23.374;2022-07-23T05:22:03;94981.66;;;28.00;35.71
27958;BME280;15295;42.658;23.374;2022-07-23T05:24:28;94973.25;;;28.00;35.65
27958;BME280;15295;42.658;23.374;2022-07-23T05:26:54;94985.88;;;28.21;35.47
27958;BME280;15295;42.658;23.374;2022-07-23T05:29:19;94987.69;;;28.24;35.61
27958;BME280;15295;42.658;23.374;2022-07-23T05:31:45;94992.09;;;28.31;35.46
27958;BME280;15295;42.658;23.374;2022-07-23T05:34:10;94981.88;;;28.33;35.58
27958;BME280;15295;42.658;23.374;2022-07-23T05:36:36;94986.22;;;28.34;35.00
27958;BME280;15295;42.658;23.374;2022-07-23T05:39:03;94987.78;;;28.35;34.90
27958;BME280;15295;42.658;23.374;2022-07-23T05:44:01;94986.91;;;28.66;34.45
27958;BME280;15295;42.658;23.374;2022-07-23T05:46:27;94987.97;;;28.79;34.48
27958;BME280;15295;42.658;23.374;2022-07-23T05:48:52;94991.38;;;29.00;34.04
27958;BME280;15295;42.658;23.374;2022-07-23T05:51:22;94986.00;;;28.96;34.23
27958;BME280;15295;42.658;23.374;2022-07-23T05:53:49;94988.06;;;29.02;34.66
27958;BME280;15295;42.658;23.374;2022-07-23T05:56:16;94987.59;;;29.20;33.94
27958;BME280;15295;42.658;23.374;2022-07-23T06:01:06;94993.00;;;29.34;33.72
27958;BME280;15295;42.658;23.374;2022-07-23T06:03:32;94992.53;;;29.47;32.98
27958;BME280;15295;42.658;23.374;2022-07-23T06:05:57;94989.19;;;29.65;33.09
27958;BME280;15295;42.658;23.374;2022-07-23T06:08:24;94990.25;;;29.84;32.60
27958;BME280;15295;42.658;23.374;2022-07-23T06:10:49;94991.50;;;30.00;32.71
27958;BME280;15295;42.658;23.374;2022-07-23T06:13:17;94979.97;;;30.14;32.54
27958;BME280;15295;42.658;23.374;2022-07-23T06:15:43;94977.38;;;30.22;32.47
27958;BME280;15295;42.658;23.374;2022-07-23T06:18:09;94983.78;;;30.28;31.84
27958;BME280;15295;42.658;23.374;2022-07-23T06:20:35;94984.53;;;30.28;31.22
27958;BME280;15295;42.658;23.374;2022-07-23T06:23:01;94988.91;;;30.35;31.77
27958;BME280;15295;42.658;23.374;2022-07-23T06:25:27;94990.91;;;30.51;31.99
27958;BME280;15295;42.658;23.374;2022-07-23T06:27:53;94963.50;;;30.52;31.64
27958;BME280;15295;42.658;23.374;2022-07-23T06:30:18;94979.03;;;30.75;31.77
27958;BME280;15295;42.658;23.374;2022-07-23T06:32:45;94978.75;;;30.84;31.66
27958;BME280;15295;42.658;23.374;2022-07-23T06:35:11;94970.47;;;31.02;31.36
27958;BME280;15295;42.658;23.374;2022-07-23T06:37:36;94974.44;;;31.18;31.33
27958;BME280;15295;42.658;23.374;2022-07-23T06:40:02;94980.75;;;31.35;31.03
27958;BME280;15295;42.658;23.374;2022-07-23T06:42:28;94984.59;;;31.43;30.98
27958;BME280;15295;42.658;23.374;2022-07-23T06:44:53;94984.00;;;31.56;30.67
27958;BME280;15295;42.658;23.374;2022-07-23T06:47:19;94981.84;;;31.67;29.75
27958;BME280;15295;42.658;23.374;2022-07-23T06:49:44;94981.19;;;31.85;29.44
27958;BME280;15295;42.658;23.374;2022-07-23T06:52:10;94948.03;;;31.86;29.45
27958;BME280;15295;42.658;23.374;2022-07-23T06:54:35;94978.81;;;32.25;29.53
27958;BME280;15295;42.658;23.374;2022-07-23T06:57:02;94974.00;;;32.38;28.88
27958;BME280;15295;42.658;23.374;2022-07-23T06:59:27;94974.38;;;32.53;28.42
27958;BME280;15295;42.658;23.374;2022-07-23T07:01:53;94961.88;;;32.67;28.40
27958;BME280;15295;42.658;23.374;2022-07-23T07:04:19;94963.50;;;32.82;28.46
27958;BME280;15295;42.658;23.374;2022-07-23T07:06:44;94975.09;;;33.02;28.08
27958;BME280;15295;42.658;23.374;2022-07-23T07:09:10;94972.88;;;33.14;27.45
27958;BME280;15295;42.658;23.374;2022-07-23T07:11:35;94968.34;;;33.24;27.61
27958;BME280;15295;42.658;23.374;2022-07-23T07:14:01;94971.34;;;33.31;27.42
27958;BME280;15295;42.658;23.374;2022-07-23T07:16:27;94961.25;;;33.36;26.95
27958;BME280;15295;42.658;23.374;2022-07-23T07:18:53;94964.66;;;33.47;26.94
27958;BME280;15295;42.658;23.374;2022-07-23T07:21:18;94958.34;;;33.73;27.13
27958;BME280;15295;42.658;23.374;2022-07-23T07:23:49;94962.72;;;34.06;26.52
27958;BME280;15295;42.658;23.374;2022-07-23T07:26:36;94950.97;;;34.15;26.02
27958;BME280;15295;42.658;23.374;2022-07-23T07:31:29;94938.75;;;34.33;25.38
27958;BME280;15295;42.658;23.374;2022-07-23T07:33:54;94934.41;;;34.32;25.04
27958;BME280;15295;42.658;23.374;2022-07-23T07:36:24;94930.47;;;34.48;24.78
27958;BME280;15295;42.658;23.374;2022-07-23T07:38:49;94946.22;;;34.62;24.99
27958;BME280;15295;42.658;23.374;2022-07-23T07:41:15;94956.88;;;34.82;24.93
27958;BME280;15295;42.658;23.374;2022-07-23T07:43:41;94951.75;;;34.94;24.95
27958;BME280;15295;42.658;23.374;2022-07-23T07:46:16;94950.06;;;35.12;24.79
27958;BME280;15295;42.658;23.374;2022-07-23T07:48:41;94951.03;;;35.27;24.33
27958;BME280;15295;42.658;23.374;2022-07-23T07:51:07;94954.19;;;35.37;24.00
27958;BME280;15295;42.658;23.374;2022-07-23T07:53:34;94942.88;;;35.44;24.15
27958;BME280;15295;42.658;23.374;2022-07-23T07:56:04;94941.88;;;35.55;24.37
27958;BME280;15295;42.658;23.374;2022-07-23T07:58:29;94953.09;;;35.74;24.42
27958;BME280;15295;42.658;23.374;2022-07-23T08:00:55;94947.25;;;35.79;25.15
27958;BME280;15295;42.658;23.374;2022-07-23T08:03:21;94943.31;;;35.82;24.67
27958;BME280;15295;42.658;23.374;2022-07-23T08:06:01;94935.25;;;35.73;24.61
27958;BME280;15295;42.658;23.374;2022-07-23T08:08:37;94940.00;;;35.78;24.25
27958;BME280;15295;42.658;23.374;2022-07-23T08:11:02;94925.38;;;35.74;24.01
27958;BME280;15295;42.658;23.374;2022-07-23T08:13:28;94929.53;;;35.94;23.80
27958;BME280;15295;42.658;23.374;2022-07-23T08:16:11;94920.91;;;35.99;23.76
27958;BME280;15295;42.658;23.374;2022-07-23T08:18:36;94941.09;;;36.09;23.89
27958;BME280;15295;42.658;23.374;2022-07-23T08:21:02;94944.03;;;36.24;24.13
27958;BME280;15295;42.658;23.374;2022-07-23T08:23:29;94934.66;;;36.36;23.69
27958;BME280;15295;42.658;23.374;2022-07-23T08:39:37;94933.38;;;37.01;22.90
27958;BME280;15295;42.658;23.374;2022-07-23T08:45:37;94931.81;;;37.44;22.54
27958;BME280;15295;42.658;23.374;2022-07-23T08:48:05;94942.50;;;37.58;22.69
27958;BME280;15295;42.658;23.374;2022-07-23T08:50:32;94937.63;;;37.81;22.38
27958;BME280;15295;42.658;23.374;2022-07-23T08:53:00;94930.78;;;37.92;21.97
27958;BME280;15295;42.658;23.374;2022-07-23T08:55:25;94939.72;;;37.96;21.85
27958;BME280;15295;42.658;23.374;2022-07-23T08:57:53;94928.50;;;37.91;21.43
27958;BME280;15295;42.658;23.374;2022-07-23T09:00:21;94925.44;;;37.96;21.91
27958;BME280;15295;42.658;23.374;2022-07-23T09:02:56;94916.91;;;37.96;21.72
27958;BME280;15295;42.658;23.374;2022-07-23T09:05:24;94932.31;;;38.16;21.67
27958;BME280;15295;42.658;23.374;2022-07-23T09:08:43;94929.66;;;38.33;21.77
27958;BME280;15295;42.658;23.374;2022-07-23T09:11:11;94909.47;;;38.16;21.76
27958;BME280;15295;42.658;23.374;2022-07-23T09:13:45;94926.41;;;38.44;21.28
27958;BME280;15295;42.658;23.374;2022-07-23T09:16:19;94926.19;;;38.72;21.42
27958;BME280;15295;42.658;23.374;2022-07-23T09:18:55;94924.44;;;38.92;21.08
27958;BME280;15295;42.658;23.374;2022-07-23T09:21:25;94924.97;;;38.98;20.69
27958;BME280;15295;42.658;23.374;2022-07-23T09:26:44;94925.50;;;39.11;20.23
27958;BME280;15295;42.658;23.374;2022-07-23T09:34:26;94917.53;;;39.50;19.79
27958;BME280;15295;42.658;23.374;2022-07-23T09:36:57;94909.75;;;39.43;19.37
27958;BME280;15295;42.658;23.374;2022-07-23T09:39:30;94919.59;;;39.57;18.98
27958;BME280;15295;42.658;23.374;2022-07-23T09:41:57;94908.78;;;39.80;19.17
27958;BME280;15295;42.658;23.374;2022-07-23T09:44:22;94910.19;;;39.71;18.96
27958;BME280;15295;42.658;23.374;2022-07-23T09:46:50;94908.00;;;39.79;18.55
27958;BME280;15295;42.658;23.374;2022-07-23T09:49:22;94886.53;;;39.71;18.16
27958;BME280;15295;42.658;23.374;2022-07-23T09:51:58;94902.16;;;39.70;18.44
27958;BME280;15295;42.658;23.374;2022-07-23T09:54:36;94901.78;;;39.73;18.79
27958;BME280;15295;42.658;23.374;2022-07-23T09:57:10;94893.19;;;39.98;17.97
27958;BME280;15295;42.658;23.374;2022-07-23T09:59:43;94890.03;;;40.11;18.16
27958;BME280;15295;42.658;23.374;2022-07-23T10:02:11;94883.84;;;40.22;17.56
27958;BME280;15295;42.658;23.374;2022-07-23T10:04:39;94888.81;;;40.39;15.73
27958;BME280;15295;42.658;23.374;2022-07-23T10:07:06;94889.31;;;40.52;16.23
27958;BME280;15295;42.658;23.374;2022-07-23T10:09:40;94872.44;;;40.56;16.23
27958;BME280;15295;42.658;23.374;2022-07-23T10:12:11;94879.59;;;40.65;16.87
27958;BME280;15295;42.658;23.374;2022-07-23T10:14:40;94868.75;;;40.81;16.52
27958;BME280;15295;42.658;23.374;2022-07-23T10:17:06;94879.19;;;41.03;16.52
27958;BME280;15295;42.658;23.374;2022-07-23T10:19:32;94868.97;;;41.09;16.60
27958;BME280;15295;42.658;23.374;2022-07-23T10:22:18;94867.84;;;41.22;16.16
27958;BME280;15295;42.658;23.374;2022-07-23T10:25:22;94870.06;;;41.14;15.70
27958;BME280;15295;42.658;23.374;2022-07-23T10:27:55;94871.75;;;41.17;16.57
27958;BME280;15295;42.658;23.374;2022-07-23T10:30:43;94864.47;;;41.33;15.51
27958;BME280;15295;42.658;23.374;2022-07-23T10:36:18;94851.53;;;41.41;16.00
27958;BME280;15295;42.658;23.374;2022-07-23T10:41:33;94859.56;;;41.70;15.36
27958;BME280;15295;42.658;23.374;2022-07-23T10:44:16;94845.41;;;41.81;15.40
27958;BME280;15295;42.658;23.374;2022-07-23T10:52:25;94840.69;;;42.12;14.58
27958;BME280;15295;42.658;23.374;2022-07-23T10:57:21;94840.31;;;41.99;14.01
27958;BME280;15295;42.658;23.374;2022-07-23T11:27:44;94806.88;;;42.40;11.92
27958;BME280;15295;42.658;23.374;2022-07-23T11:38:18;94792.84;;;42.91;11.61
27958;BME280;15295;42.658;23.374;2022-07-23T11:40:51;94798.47;;;42.89;11.84
27958;BME280;15295;42.658;23.374;2022-07-23T11:43:18;94793.72;;;42.84;11.64
27958;BME280;15295;42.658;23.374;2022-07-23T12:03:04;94784.94;;;43.11;10.34
27958;BME280;15295;42.658;23.374;2022-07-23T12:05:36;94776.00;;;43.17;10.08
27958;BME280;15295;42.658;23.374;2022-07-23T12:08:07;94769.63;;;43.28;10.33
27958;BME280;15295;42.658;23.374;2022-07-23T12:10:42;94777.00;;;43.40;11.13
27958;BME280;15295;42.658;23.374;2022-07-23T12:13:14;94763.69;;;43.35;10.17
27958;BME280;15295;42.658;23.374;2022-07-23T12:16:00;94752.03;;;43.33;9.90
27958;BME280;15295;42.658;23.374;2022-07-23T12:18:30;94764.72;;;43.49;10.17
27958;BME280;15295;42.658;23.374;2022-07-23T12:21:03;94767.81;;;43.63;10.12
27958;BME280;15295;42.658;23.374;2022-07-23T12:23:29;94758.75;;;43.66;9.60
27958;BME280;15295;42.658;23.374;2022-07-23T12:25:54;94756.91;;;43.61;10.14
27958;BME280;15295;42.658;23.374;2022-07-23T12:28:27;94757.22;;;43.65;9.50
27958;BME280;15295;42.658;23.374;2022-07-23T12:31:01;94749.63;;;43.39;9.63
27958;BME280;15295;42.658;23.374;2022-07-23T12:33:38;94756.47;;;43.25;9.84
27958;BME280;15295;42.658;23.374;2022-07-23T12:36:09;94750.16;;;43.07;9.79
27958;BME280;15295;42.658;23.374;2022-07-23T12:38:50;94736.84;;;43.02;10.13
27958;BME280;15295;42.658;23.374;2022-07-23T12:41:17;94745.53;;;43.23;10.41
27958;BME280;15295;42.658;23.374;2022-07-23T12:43:45;94751.91;;;43.31;10.15
27958;BME280;15295;42.658;23.374;2022-07-23T12:46:12;94744.50;;;43.28;9.38
27958;BME280;15295;42.658;23.374;2022-07-23T12:48:52;94740.16;;;43.08;9.56
27958;BME280;15295;42.658;23.374;2022-07-23T12:51:31;94708.41;;;42.87;10.05
27958;BME280;15295;42.658;23.374;2022-07-23T12:54:08;94704.16;;;42.97;10.10
27958;BME280;15295;42.658;23.374;2022-07-23T12:56:44;94725.47;;;41.99;10.22
27958;BME280;15295;42.658;23.374;2022-07-23T12:59:19;94720.00;;;41.02;10.45
27958;BME280;15295;42.658;23.374;2022-07-23T13:02:19;94686.66;;;40.36;10.47
27958;BME280;15295;42.658;23.374;2022-07-23T13:04:46;94686.44;;;40.24;10.63
27958;BME280;15295;42.658;23.374;2022-07-23T13:07:12;94691.66;;;40.01;11.42
27958;BME280;15295;42.658;23.374;2022-07-23T13:09:51;94685.50;;;40.22;11.22
27958;BME280;15295;42.658;23.374;2022-07-23T13:12:17;94691.06;;;40.81;10.99
27958;BME280;15295;42.658;23.374;2022-07-23T13:14:47;94688.53;;;40.85;11.00
27958;BME280;15295;42.658;23.374;2022-07-23T13:17:13;94684.13;;;40.57;10.26
27958;BME280;15295;42.658;23.374;2022-07-23T13:19:40;94710.41;;;40.90;10.40
27958;BME280;15295;42.658;23.374;2022-07-23T13:22:12;94705.31;;;40.71;10.47
27958;BME280;15295;42.658;23.374;2022-07-23T13:24:54;94675.13;;;40.43;10.05
27958;BME280;15295;42.658;23.374;2022-07-23T13:27:44;94711.69;;;40.52;10.62
27958;BME280;15295;42.658;23.374;2022-07-23T13:30:18;94699.03;;;40.55;9.82
27958;BME280;15295;42.658;23.374;2022-07-23T13:32:48;94706.94;;;40.64;10.83
27958;BME280;15295;42.658;23.374;2022-07-23T13:35:36;94704.34;;;40.59;10.73
27958;BME280;15295;42.658;23.374;2022-07-23T13:38:04;94705.84;;;40.60;11.17
27958;BME280;15295;42.658;23.374;2022-07-23T13:40:59;94697.16;;;40.67;11.45
27958;BME280;15295;42.658;23.374;2022-07-23T13:43:33;94704.38;;;40.68;11.76
27958;BME280;15295;42.658;23.374;2022-07-23T13:45:59;94697.53;;;40.54;11.31
27958;BME280;15295;42.658;23.374;2022-07-23T13:48:37;94683.56;;;40.41;11.70
27958;BME280;15295;42.658;23.374;2022-07-23T13:51:12;94683.44;;;40.49;11.67
27958;BME280;15295;42.658;23.374;2022-07-23T13:53:45;94666.75;;;40.82;11.40
27958;BME280;15295;42.658;23.374;2022-07-23T13:56:19;94687.59;;;40.82;11.45
27958;BME280;15295;42.658;23.374;2022-07-23T13:58:54;94695.16;;;40.60;11.28
27958;BME280;15295;42.658;23.374;2022-07-23T14:01:30;94666.09;;;40.47;11.47
27958;BME280;15295;42.658;23.374;2022-07-23T14:03:59;94683.06;;;39.84;11.79
27958;BME280;15295;42.658;23.374;2022-07-23T14:06:34;94661.44;;;39.73;11.45
27958;BME280;15295;42.658;23.374;2022-07-23T14:09:15;94648.47;;;39.30;11.80
27958;BME280;15295;42.658;23.374;2022-07-23T14:12:01;94682.22;;;39.49;11.47
27958;BME280;15295;42.658;23.374;2022-07-23T14:14:29;94659.66;;;39.61;11.41
27958;BME280;15295;42.658;23.374;2022-07-23T14:17:05;94654.28;;;39.40;11.13
27958;BME280;15295;42.658;23.374;2022-07-23T14:19:34;94684.50;;;39.51;12.45
27958;BME280;15295;42.658;23.374;2022-07-23T14:22:01;94674.06;;;40.04;12.73
27958;BME280;15295;42.658;23.374;2022-07-23T14:24:27;94675.91;;;40.27;11.72
27958;BME280;15295;42.658;23.374;2022-07-23T14:26:59;94674.22;;;40.24;11.13
27958;BME280;15295;42.658;23.374;2022-07-23T14:29:33;94656.03;;;39.77;11.15
27958;BME280;15295;42.658;23.374;2022-07-23T14:34:42;94673.78;;;39.93;12.38
27958;BME280;15295;42.658;23.374;2022-07-23T14:37:11;94640.47;;;39.71;12.17
27958;BME280;15295;42.658;23.374;2022-07-23T14:39:46;94665.38;;;39.95;12.14
27958;BME280;15295;42.658;23.374;2022-07-23T14:42:13;94676.22;;;39.79;11.39
27958;BME280;15295;42.658;23.374;2022-07-23T14:44:39;94668.69;;;39.50;11.33
27958;BME280;15295;42.658;23.374;2022-07-23T14:47:24;94647.47;;;39.11;11.26
27958;BME280;15295;42.658;23.374;2022-07-23T14:49:51;94634.81;;;39.21;11.76
27958;BME280;15295;42.658;23.374;2022-07-23T14:52:30;94660.38;;;39.61;12.11
27958;BME280;15295;42.658;23.374;2022-07-23T14:55:01;94657.97;;;39.92;11.62
27958;BME280;15295;42.658;23.374;2022-07-23T14:57:35;94630.28;;;39.94;11.62
27958;BME280;15295;42.658;23.374;2022-07-23T15:00:08;94646.09;;;39.78;11.95
27958;BME280;15295;42.658;23.374;2022-07-23T15:05:21;94656.97;;;39.80;11.75
27958;BME280;15295;42.658;23.374;2022-07-23T15:07:49;94654.09;;;39.80;14.05
27958;BME280;15295;42.658;23.374;2022-07-23T15:10:14;94645.25;;;39.85;15.45
27958;BME280;15295;42.658;23.374;2022-07-23T15:12:51;94627.16;;;39.83;16.00
27958;BME280;15295;42.658;23.374;2022-07-23T15:15:50;94645.63;;;39.48;16.14
27958;BME280;15295;42.658;23.374;2022-07-23T15:18:22;94646.63;;;39.43;16.51
27958;BME280;15295;42.658;23.374;2022-07-23T15:20:51;94633.31;;;39.20;16.59
27958;BME280;15295;42.658;23.374;2022-07-23T15:23:24;94625.66;;;39.23;16.72
27958;BME280;15295;42.658;23.374;2022-07-23T15:28:22;94626.47;;;39.16;16.67
27958;BME280;15295;42.658;23.374;2022-07-23T15:34:09;94630.28;;;39.18;16.68
27958;BME280;15295;42.658;23.374;2022-07-23T15:37:07;94629.88;;;39.22;16.21
27958;BME280;15295;42.658;23.374;2022-07-23T15:42:46;94615.94;;;38.77;15.68
27958;BME280;15295;42.658;23.374;2022-07-23T15:45:22;94637.25;;;38.76;15.82
27958;BME280;15295;42.658;23.374;2022-07-23T15:47:49;94593.94;;;38.30;15.98